sensor_id;sensor_type;location;lat;lon;timestamp;pressure;altitude;pressure_sealevel;temperature;humidity
39793;BME280;26080;42.264;24.536;2024-02-14T00:02:06;98869.66;;;7.59;100.00
39793;BME280;26080;42.264;24.536;2024-02-14T00:04:31;98868.78;;;7.58;100.00
39793;BME280;26080;42.264;24.536;2024-02-14T00:06:57;98862.97;;;7.52;100.00
39793;BME280;26080;42.264;24.536;2024-02-14T00:09:22;98873.41;;;7.52;100.00
39793;BME280;26080;42.264;24.536;2024-02-14T00:11:47;98873.53;;;7.49;100.00
39793;BME280;26080;42.264;24.536;2024-02-14T00:14:13;98823.28;;;7.25;100.00
39793;BME280;26080;42.264;24.536;2024-02-14T00:16:39;98859.13;;;7.40;100.00
39793;BME280;26080;42.264;24.536;2024-02-14T00:19:04;98875.22;;;7.50;100.00
39793;BME280;26080;42.264;24.536;2024-02-14T00:21:30;98880.44;;;7.50;100.00
39793;BME280;26080;42.264;24.536;2024-02-14T00:23:57;98881.22;;;7.52;100.00
39793;BME280;26080;42.264;24.536;2024-02-14T00:26:24;98879.38;;;7.54;100.00
39793;BME280;26080;42.264;24.536;2024-02-14T00:28:49;98835.28;;;7.29;100.00
39793;BME280;26080;42.264;24.536;2024-02-14T00:31:15;98880.19;;;7.56;100.00
39793;BME280;26080;42.264;24.536;2024-02-14T00:33:40;98882.88;;;7.54;100.00
39793;BME280;26080;42.264;24.536;2024-02-14T00:36:06;98884.09;;;7.46;100.00
39793;BME280;26080;42.264;24.536;2024-02-14T00:38:32;98838.84;;;7.26;100.00
39793;BME280;26080;42.264;24.536;2024-02-14T00:40:57;98883.31;;;7.43;100.00
39793;BME280;26080;42.264;24.536;2024-02-14T00:43:23;98846.66;;;7.26;100.00
39793;BME280;26080;42.264;24.536;2024-02-14T00:45:48;98877.19;;;7.45;100.00
39793;BME280;26080;42.264;24.536;2024-02-14T00:48:14;98884.09;;;7.46;100.00
39793;BME280;26080;42.264;24.536;2024-02-14T00:50:39;98876.41;;;7.42;100.00
39793;BME280;26080;42.264;24.536;2024-02-14T00:53:04;98876.28;;;7.46;100.00
39793;BME280;26080;42.264;24.536;2024-02-14T00:55:30;98878.16;;;7.42;100.00
39793;BME280;26080;42.264;24.536;2024-02-14T00:57:55;98873.88;;;7.41;100.00
39793;BME280;26080;42.264;24.536;2024-02-14T01:00:21;98876.50;;;7.39;100.00
39793;BME280;26080;42.264;24.536;2024-02-14T01:02:46;98872.09;;;7.41;100.00
39793;BME280;26080;42.264;24.536;2024-02-14T01:05:11;98882.63;;;7.38;100.00
39793;BME280;26080;42.264;24.536;2024-02-14T01:07:37;98878.34;;;7.37;100.00
39793;BME280;26080;42.264;24.536;2024-02-14T01:10:04;98879.97;;;7.40;100.00
39793;BME280;26080;42.264;24.536;2024-02-14T01:12:30;98882.75;;;7.35;100.00
39793;BME280;26080;42.264;24.536;2024-02-14T01:14:55;98885.38;;;7.35;100.00
39793;BME280;26080;42.264;24.536;2024-02-14T01:17:21;98884.47;;;7.36;100.00
39793;BME280;26080;42.264;24.536;2024-02-14T01:19:46;98887.84;;;7.38;100.00
39793;BME280;26080;42.264;24.536;2024-02-14T01:22:12;98875.72;;;7.37;100.00
39793;BME280;26080;42.264;24.536;2024-02-14T01:24:42;98882.75;;;7.35;100.00
39793;BME280;26080;42.264;24.536;2024-02-14T01:27:08;98882.75;;;7.35;100.00
39793;BME280;26080;42.264;24.536;2024-02-14T01:29:34;98882.75;;;7.35;100.00
39793;BME280;26080;42.264;24.536;2024-02-14T01:31:59;98887.00;;;7.38;100.00
39793;BME280;26080;42.264;24.536;2024-02-14T01:34:24;98877.63;;;7.34;100.00
39793;BME280;26080;42.264;24.536;2024-02-14T01:36:50;98882.91;;;7.32;100.00
39793;BME280;26080;42.264;24.536;2024-02-14T01:39:15;98858.38;;;7.16;100.00
39793;BME280;26080;42.264;24.536;2024-02-14T01:41:46;98888.03;;;7.34;100.00
39793;BME280;26080;42.264;24.536;2024-02-14T01:44:18;98888.09;;;7.32;100.00
39793;BME280;26080;42.264;24.536;2024-02-14T01:46:46;98856.28;;;7.04;100.00
39793;BME280;26080;42.264;24.536;2024-02-14T01:49:12;98893.19;;;7.35;100.00
39793;BME280;26080;42.264;24.536;2024-02-14T01:51:39;98891.63;;;7.31;100.00
39793;BME280;26080;42.264;24.536;2024-02-14T01:54:07;98892.66;;;7.27;100.00
39793;BME280;26080;42.264;24.536;2024-02-14T01:56:33;98889.94;;;7.30;100.00
39793;BME280;26080;42.264;24.536;2024-02-14T01:59:00;98897.91;;;7.26;100.00
39793;BME280;26080;42.264;24.536;2024-02-14T02:01:26;98889.50;;;7.19;100.00
39793;BME280;26080;42.264;24.536;2024-02-14T02:03:52;98897.31;;;7.19;100.00
39793;BME280;26080;42.264;24.536;2024-02-14T02:06:17;98900.97;;;7.15;100.00
39793;BME280;26080;42.264;24.536;2024-02-14T02:08:43;98898.22;;;7.18;100.00
39793;BME280;26080;42.264;24.536;2024-02-14T02:11:09;98893.81;;;7.20;100.00
39793;BME280;26080;42.264;24.536;2024-02-14T02:13:34;98896.47;;;7.19;100.00
39793;BME280;26080;42.264;24.536;2024-02-14T02:16:00;98896.47;;;7.19;100.00
39793;BME280;26080;42.264;24.536;2024-02-14T02:18:30;98901.03;;;7.13;100.00
39793;BME280;26080;42.264;24.536;2024-02-14T02:20:56;98902.88;;;7.10;100.00
39793;BME280;26080;42.264;24.536;2024-02-14T02:23:22;98874.06;;;6.93;100.00
39793;BME280;26080;42.264;24.536;2024-02-14T02:25:48;98903.72;;;7.10;100.00
39793;BME280;26080;42.264;24.536;2024-02-14T02:28:15;98911.44;;;7.13;100.00
39793;BME280;26080;42.264;24.536;2024-02-14T02:30:41;98901.06;;;7.12;100.00
39793;BME280;26080;42.264;24.536;2024-02-14T02:33:06;98882.66;;;6.95;100.00
39793;BME280;26080;42.264;24.536;2024-02-14T02:35:33;98909.63;;;7.16;100.00
39793;BME280;26080;42.264;24.536;2024-02-14T02:37:58;98918.28;;;7.16;100.00
39793;BME280;26080;42.264;24.536;2024-02-14T02:40:24;98869.06;;;6.88;100.00
39793;BME280;26080;42.264;24.536;2024-02-14T02:42:52;98914.56;;;7.22;100.00
39793;BME280;26080;42.264;24.536;2024-02-14T02:45:18;98918.03;;;7.22;100.00
39793;BME280;26080;42.264;24.536;2024-02-14T02:47:44;98916.97;;;7.28;100.00
39793;BME280;26080;42.264;24.536;2024-02-14T02:50:09;98915.56;;;7.19;100.00
39793;BME280;26080;42.264;24.536;2024-02-14T02:52:35;98923.09;;;7.25;100.00
39793;BME280;26080;42.264;24.536;2024-02-14T02:55:00;98904.06;;;7.03;100.00
39793;BME280;26080;42.264;24.536;2024-02-14T02:57:30;98928.69;;;7.16;100.00
39793;BME280;26080;42.264;24.536;2024-02-14T02:59:57;98935.75;;;7.12;100.00
39793;BME280;26080;42.264;24.536;2024-02-14T03:02:23;98934.25;;;7.07;100.00
39793;BME280;26080;42.264;24.536;2024-02-14T03:04:48;98934.25;;;7.07;100.00
39793;BME280;26080;42.264;24.536;2024-02-14T03:07:15;98942.84;;;7.09;100.00
39793;BME280;26080;42.264;24.536;2024-02-14T03:09:41;98942.97;;;7.06;100.00
39793;BME280;26080;42.264;24.536;2024-02-14T03:12:07;98929.31;;;7.01;100.00
39793;BME280;26080;42.264;24.536;2024-02-14T03:14:34;98940.44;;;7.04;100.00
39793;BME280;26080;42.264;24.536;2024-02-14T03:17:04;98957.63;;;7.08;100.00
39793;BME280;26080;42.264;24.536;2024-02-14T03:19:30;98953.16;;;7.12;100.00
39793;BME280;26080;42.264;24.536;2024-02-14T03:21:55;98958.13;;;7.18;100.00
39793;BME280;26080;42.264;24.536;2024-02-14T03:24:21;98956.56;;;7.14;100.00
39793;BME280;26080;42.264;24.536;2024-02-14T03:26:47;98957.34;;;7.16;100.00
39793;BME280;26080;42.264;24.536;2024-02-14T03:29:12;98958.34;;;7.12;100.00
39793;BME280;26080;42.264;24.536;2024-02-14T03:31:38;98964.78;;;7.03;100.00
39793;BME280;26080;42.264;24.536;2024-02-14T03:34:04;98979.09;;;7.15;100.00
39793;BME280;26080;42.264;24.536;2024-02-14T03:36:30;98966.84;;;7.17;100.00
39793;BME280;26080;42.264;24.536;2024-02-14T03:38:57;98951.91;;;6.99;100.00
39793;BME280;26080;42.264;24.536;2024-02-14T03:41:23;98956.78;;;7.08;100.00
39793;BME280;26080;42.264;24.536;2024-02-14T03:43:49;98983.28;;;7.19;100.00
39793;BME280;26080;42.264;24.536;2024-02-14T03:46:18;98986.91;;;7.15;100.00
39793;BME280;26080;42.264;24.536;2024-02-14T03:48:46;98982.22;;;7.23;100.00
39793;BME280;26080;42.264;24.536;2024-02-14T03:51:13;98985.81;;;7.21;100.00
39793;BME280;26080;42.264;24.536;2024-02-14T03:53:38;98994.34;;;7.24;100.00
39793;BME280;26080;42.264;24.536;2024-02-14T03:56:04;98991.09;;;7.19;100.00
39793;BME280;26080;42.264;24.536;2024-02-14T03:58:29;98995.44;;;7.19;100.00
39793;BME280;26080;42.264;24.536;2024-02-14T04:00:55;99000.72;;;7.17;100.00
39793;BME280;26080;42.264;24.536;2024-02-14T04:03:20;99008.28;;;7.23;100.00
39793;BME280;26080;42.264;24.536;2024-02-14T04:05:46;99009.25;;;7.21;100.00
39793;BME280;26080;42.264;24.536;2024-02-14T04:08:12;99008.16;;;7.26;100.00
39793;BME280;26080;42.264;24.536;2024-02-14T04:10:39;98999.81;;;7.18;100.00
39793;BME280;26080;42.264;24.536;2024-02-14T04:13:04;99013.50;;;7.23;100.00
39793;BME280;26080;42.264;24.536;2024-02-14T04:15:31;99005.13;;;7.15;100.00
39793;BME280;26080;42.264;24.536;2024-02-14T04:17:56;99019.72;;;7.19;100.00
39793;BME280;26080;42.264;24.536;2024-02-14T04:20:22;99024.16;;;7.17;100.00
39793;BME280;26080;42.264;24.536;2024-02-14T04:22:47;99018.38;;;7.09;100.00
39793;BME280;26080;42.264;24.536;2024-02-14T04:25:12;99023.31;;;7.17;100.00
39793;BME280;26080;42.264;24.536;2024-02-14T04:27:38;99032.81;;;7.18;100.00
39793;BME280;26080;42.264;24.536;2024-02-14T04:30:04;99031.06;;;7.18;100.00
39793;BME280;26080;42.264;24.536;2024-02-14T04:32:30;99034.31;;;7.23;100.00
39793;BME280;26080;42.264;24.536;2024-02-14T04:34:55;99025.84;;;7.18;100.00
39793;BME280;26080;42.264;24.536;2024-02-14T04:37:21;99032.69;;;7.21;100.00
39793;BME280;26080;42.264;24.536;2024-02-14T04:39:47;99033.59;;;7.20;100.00
39793;BME280;26080;42.264;24.536;2024-02-14T04:42:12;99038.75;;;7.21;100.00
39793;BME280;26080;42.264;24.536;2024-02-14T04:44:37;99033.53;;;7.21;100.00
39793;BME280;26080;42.264;24.536;2024-02-14T04:47:04;99036.16;;;7.21;100.00
39793;BME280;26080;42.264;24.536;2024-02-14T04:49:30;99020.19;;;7.07;100.00
39793;BME280;26080;42.264;24.536;2024-02-14T04:51:56;99048.25;;;7.22;100.00
39793;BME280;26080;42.264;24.536;2024-02-14T04:54:22;99040.63;;;7.18;100.00
39793;BME280;26080;42.264;24.536;2024-02-14T04:56:47;99013.28;;;7.06;100.00
39793;BME280;26080;42.264;24.536;2024-02-14T04:59:13;99051.56;;;7.27;100.00
39793;BME280;26080;42.264;24.536;2024-02-14T05:01:38;99052.44;;;7.26;100.00
39793;BME280;26080;42.264;24.536;2024-02-14T05:04:07;99055.22;;;7.22;100.00
39793;BME280;26080;42.264;24.536;2024-02-14T05:06:32;99056.97;;;7.21;100.00
39793;BME280;26080;42.264;24.536;2024-02-14T05:08:58;99050.06;;;7.20;100.00
39793;BME280;26080;42.264;24.536;2024-02-14T05:11:24;99061.47;;;7.18;100.00
39793;BME280;26080;42.264;24.536;2024-02-14T05:13:50;99060.63;;;7.17;100.00
39793;BME280;26080;42.264;24.536;2024-02-14T05:16:19;99064.91;;;7.18;100.00
39793;BME280;26080;42.264;24.536;2024-02-14T05:18:44;99053.88;;;7.11;100.00
39793;BME280;26080;42.264;24.536;2024-02-14T05:21:10;99071.81;;;7.19;100.00
39793;BME280;26080;42.264;24.536;2024-02-14T05:23:35;99082.25;;;7.19;100.00
39793;BME280;26080;42.264;24.536;2024-02-14T05:26:02;99043.97;;;6.98;100.00
39793;BME280;26080;42.264;24.536;2024-02-14T05:28:30;99083.03;;;7.21;100.00
39793;BME280;26080;42.264;24.536;2024-02-14T05:30:57;99084.91;;;7.18;100.00
39793;BME280;26080;42.264;24.536;2024-02-14T05:33:22;99081.44;;;7.17;100.00
39793;BME280;26080;42.264;24.536;2024-02-14T05:35:48;99088.13;;;7.24;100.00
39793;BME280;26080;42.264;24.536;2024-02-14T05:38:14;99092.31;;;7.28;100.00
39793;BME280;26080;42.264;24.536;2024-02-14T05:40:40;99093.13;;;7.30;100.00
39793;BME280;26080;42.264;24.536;2024-02-14T05:43:05;99101.72;;;7.32;100.00
39793;BME280;26080;42.264;24.536;2024-02-14T05:45:32;99108.16;;;7.46;100.00
39793;BME280;26080;42.264;24.536;2024-02-14T05:47:58;99114.69;;;7.34;100.00
39793;BME280;26080;42.264;24.536;2024-02-14T05:50:23;99115.34;;;7.39;100.00
39793;BME280;26080;42.264;24.536;2024-02-14T05:52:49;99120.28;;;7.47;100.00
39793;BME280;26080;42.264;24.536;2024-02-14T05:55:14;99119.38;;;7.48;100.00
39793;BME280;26080;42.264;24.536;2024-02-14T05:57:40;99127.00;;;7.52;100.00
39793;BME280;26080;42.264;24.536;2024-02-14T06:00:06;99127.06;;;7.51;100.00
39793;BME280;26080;42.264;24.536;2024-02-14T06:02:32;99121.00;;;7.50;100.00
39793;BME280;26080;42.264;24.536;2024-02-14T06:04:57;99136.59;;;7.52;100.00
39793;BME280;26080;42.264;24.536;2024-02-14T06:07:23;99134.03;;;7.50;100.00
39793;BME280;26080;42.264;24.536;2024-02-14T06:09:48;99136.53;;;7.53;100.00
39793;BME280;26080;42.264;24.536;2024-02-14T06:12:14;99141.47;;;7.61;100.00
39793;BME280;26080;42.264;24.536;2024-02-14T06:14:39;99134.50;;;7.61;100.00
39793;BME280;26080;42.264;24.536;2024-02-14T06:17:05;99145.78;;;7.62;100.00
39793;BME280;26080;42.264;24.536;2024-02-14T06:19:30;99139.59;;;7.64;100.00
39793;BME280;26080;42.264;24.536;2024-02-14T06:21:56;99138.53;;;7.70;100.00
39793;BME280;26080;42.264;24.536;2024-02-14T06:24:21;99149.56;;;7.77;100.00
39793;BME280;26080;42.264;24.536;2024-02-14T06:26:47;99155.63;;;7.77;100.00
39793;BME280;26080;42.264;24.536;2024-02-14T06:29:15;99163.28;;;7.82;100.00
39793;BME280;26080;42.264;24.536;2024-02-14T06:31:40;99162.31;;;7.84;100.00
39793;BME280;26080;42.264;24.536;2024-02-14T06:34:06;99164.00;;;7.85;100.00
39793;BME280;26080;42.264;24.536;2024-02-14T06:36:32;99157.09;;;7.84;100.00
39793;BME280;26080;42.264;24.536;2024-02-14T06:38:57;99125.88;;;7.59;100.00
39793;BME280;26080;42.264;24.536;2024-02-14T06:41:23;99165.69;;;7.86;100.00
39793;BME280;26080;42.264;24.536;2024-02-14T06:43:48;99167.53;;;7.84;100.00
39793;BME280;26080;42.264;24.536;2024-02-14T06:46:14;99176.78;;;7.91;100.00
39793;BME280;26080;42.264;24.536;2024-02-14T06:48:40;99176.50;;;7.99;100.00
39793;BME280;26080;42.264;24.536;2024-02-14T06:51:06;99177.09;;;8.06;100.00
39793;BME280;26080;42.264;24.536;2024-02-14T06:53:32;99179.63;;;8.09;100.00
39793;BME280;26080;42.264;24.536;2024-02-14T06:55:57;99185.25;;;8.20;100.00
39793;BME280;26080;42.264;24.536;2024-02-14T06:58:23;99181.72;;;8.21;100.00
39793;BME280;26080;42.264;24.536;2024-02-14T07:00:48;99178.44;;;8.16;100.00
39793;BME280;26080;42.264;24.536;2024-02-14T07:03:15;99178.44;;;8.16;100.00
39793;BME280;26080;42.264;24.536;2024-02-14T07:05:40;99195.00;;;8.38;100.00
39793;BME280;26080;42.264;24.536;2024-02-14T07:08:07;99188.28;;;8.31;100.00
39793;BME280;26080;42.264;24.536;2024-02-14T07:10:32;99200.22;;;8.38;100.00
39793;BME280;26080;42.264;24.536;2024-02-14T07:12:58;99198.41;;;8.40;100.00
39793;BME280;26080;42.264;24.536;2024-02-14T07:15:23;99207.13;;;8.39;100.00
39793;BME280;26080;42.264;24.536;2024-02-14T07:17:56;99217.69;;;8.36;100.00
39793;BME280;26080;42.264;24.536;2024-02-14T07:20:24;99192.06;;;8.24;100.00
39793;BME280;26080;42.264;24.536;2024-02-14T07:22:51;99162.31;;;8.06;100.00
39793;BME280;26080;42.264;24.536;2024-02-14T07:25:19;99216.06;;;8.32;100.00
39793;BME280;26080;42.264;24.536;2024-02-14T07:27:44;99216.47;;;8.45;100.00
39793;BME280;26080;42.264;24.536;2024-02-14T07:30:12;99225.94;;;8.47;100.00
39793;BME280;26080;42.264;24.536;2024-02-14T07:32:37;99217.31;;;8.45;100.00
39793;BME280;26080;42.264;24.536;2024-02-14T07:35:03;99226.06;;;8.44;100.00
39793;BME280;26080;42.264;24.536;2024-02-14T07:37:30;99197.16;;;8.27;100.00
39793;BME280;26080;42.264;24.536;2024-02-14T07:39:55;99227.22;;;8.37;100.00
39793;BME280;26080;42.264;24.536;2024-02-14T07:42:21;99226.41;;;8.35;100.00
39793;BME280;26080;42.264;24.536;2024-02-14T07:44:47;99208.31;;;8.09;100.00
39793;BME280;26080;42.264;24.536;2024-02-14T07:47:12;99242.16;;;8.32;100.00
39793;BME280;26080;42.264;24.536;2024-02-14T07:49:39;99232.03;;;8.24;100.00
39793;BME280;26080;42.264;24.536;2024-02-14T07:52:05;99242.41;;;8.26;100.00
39793;BME280;26080;42.264;24.536;2024-02-14T07:54:30;99246.44;;;8.35;100.00
39793;BME280;26080;42.264;24.536;2024-02-14T07:56:56;99248.41;;;8.28;100.00
39793;BME280;26080;42.264;24.536;2024-02-14T07:59:21;99231.34;;;8.19;100.00
39793;BME280;26080;42.264;24.536;2024-02-14T08:01:47;99259.50;;;8.33;100.00
39793;BME280;26080;42.264;24.536;2024-02-14T08:04:12;99228.41;;;8.05;100.00
39793;BME280;26080;42.264;24.536;2024-02-14T08:06:37;99262.72;;;8.18;100.00
39793;BME280;26080;42.264;24.536;2024-02-14T08:09:03;99265.31;;;8.18;100.00
39793;BME280;26080;42.264;24.536;2024-02-14T08:11:31;99266.91;;;8.22;100.00
39793;BME280;26080;42.264;24.536;2024-02-14T08:13:57;99276.50;;;8.21;100.00
39793;BME280;26080;42.264;24.536;2024-02-14T08:16:23;99280.75;;;8.24;100.00
39793;BME280;26080;42.264;24.536;2024-02-14T08:18:49;99275.41;;;8.27;100.00
39793;BME280;26080;42.264;24.536;2024-02-14T08:21:16;99278.69;;;8.32;100.00
39793;BME280;26080;42.264;24.536;2024-02-14T08:23:41;99278.38;;;8.41;100.00
39793;BME280;26080;42.264;24.536;2024-02-14T08:26:08;99269.84;;;8.38;100.00
39793;BME280;26080;42.264;24.536;2024-02-14T08:28:38;99289.41;;;8.48;100.00
39793;BME280;26080;42.264;24.536;2024-02-14T08:31:10;99284.94;;;8.51;100.00
39793;BME280;26080;42.264;24.536;2024-02-14T08:33:36;99251.03;;;8.28;100.00
39793;BME280;26080;42.264;24.536;2024-02-14T08:36:05;99266.47;;;8.34;100.00
39793;BME280;26080;42.264;24.536;2024-02-14T08:38:32;99285.31;;;8.42;100.00
39793;BME280;26080;42.264;24.536;2024-02-14T08:40:57;99292.34;;;8.40;100.00
39793;BME280;26080;42.264;24.536;2024-02-14T08:43:23;99299.91;;;8.46;100.00
39793;BME280;26080;42.264;24.536;2024-02-14T08:45:51;99300.63;;;8.51;100.00
39793;BME280;26080;42.264;24.536;2024-02-14T08:48:17;99304.22;;;8.47;100.00
39793;BME280;26080;42.264;24.536;2024-02-14T08:50:43;99296.31;;;8.50;100.00
39793;BME280;26080;42.264;24.536;2024-02-14T08:53:08;99298.78;;;8.53;100.00
39793;BME280;26080;42.264;24.536;2024-02-14T08:55:35;99271.59;;;8.37;100.00
39793;BME280;26080;42.264;24.536;2024-02-14T08:58:01;99299.31;;;8.61;100.00
39793;BME280;26080;42.264;24.536;2024-02-14T09:00:27;99303.34;;;8.70;100.00
39793;BME280;26080;42.264;24.536;2024-02-14T09:02:52;99314.50;;;8.74;100.00
39793;BME280;26080;42.264;24.536;2024-02-14T09:05:18;99310.75;;;8.81;100.00
39793;BME280;26080;42.264;24.536;2024-02-14T09:07:44;99320.16;;;8.85;100.00
39793;BME280;26080;42.264;24.536;2024-02-14T09:10:09;99297.06;;;8.74;100.00
39793;BME280;26080;42.264;24.536;2024-02-14T09:12:38;99319.03;;;8.90;100.00
39793;BME280;26080;42.264;24.536;2024-02-14T09:15:04;99324.97;;;8.96;100.00
39793;BME280;26080;42.264;24.536;2024-02-14T09:17:30;99329.97;;;9.00;100.00
39793;BME280;26080;42.264;24.536;2024-02-14T09:19:56;99330.13;;;8.97;100.00
39793;BME280;26080;42.264;24.536;2024-02-14T09:22:21;99330.13;;;8.97;100.00
39793;BME280;26080;42.264;24.536;2024-02-14T09:24:47;99328.28;;;8.99;100.00
39793;BME280;26080;42.264;24.536;2024-02-14T09:27:13;99330.78;;;9.02;99.67
39793;BME280;26080;42.264;24.536;2024-02-14T09:29:39;99332.38;;;9.06;99.74
39793;BME280;26080;42.264;24.536;2024-02-14T09:32:04;99329.63;;;9.09;99.66
39793;BME280;26080;42.264;24.536;2024-02-14T09:34:30;99332.66;;;9.20;99.98
39793;BME280;26080;42.264;24.536;2024-02-14T09:36:56;99334.34;;;9.22;98.15
39793;BME280;26080;42.264;24.536;2024-02-14T09:39:23;99323.28;;;9.15;97.71
39793;BME280;26080;42.264;24.536;2024-02-14T09:41:54;99335.91;;;9.26;98.58
39793;BME280;26080;42.264;24.536;2024-02-14T09:44:27;99330.16;;;9.17;96.67
39793;BME280;26080;42.264;24.536;2024-02-14T09:46:54;99300.66;;;8.94;97.46
39793;BME280;26080;42.264;24.536;2024-02-14T09:49:21;99330.28;;;9.14;98.20
39793;BME280;26080;42.264;24.536;2024-02-14T09:51:48;99329.56;;;9.11;97.27
39793;BME280;26080;42.264;24.536;2024-02-14T09:54:15;99302.31;;;8.96;97.16
39793;BME280;26080;42.264;24.536;2024-02-14T09:56:43;99338.97;;;9.15;97.27
39793;BME280;26080;42.264;24.536;2024-02-14T09:59:13;99332.16;;;9.33;100.00
39793;BME280;26080;42.264;24.536;2024-02-14T10:01:40;99320.66;;;9.37;98.15
39793;BME280;26080;42.264;24.536;2024-02-14T10:04:06;99334.44;;;9.40;97.04
39793;BME280;26080;42.264;24.536;2024-02-14T10:06:32;99336.53;;;9.32;96.23
39793;BME280;26080;42.264;24.536;2024-02-14T10:08:58;99337.88;;;9.41;97.04
39793;BME280;26080;42.264;24.536;2024-02-14T10:11:24;99336.59;;;9.51;97.55
39793;BME280;26080;42.264;24.536;2024-02-14T10:13:52;99340.13;;;9.50;96.30
39793;BME280;26080;42.264;24.536;2024-02-14T10:16:19;99334.91;;;9.50;95.46
39793;BME280;26080;42.264;24.536;2024-02-14T10:18:45;99318.44;;;9.48;95.41
39793;BME280;26080;42.264;24.536;2024-02-14T10:21:16;99345.22;;;9.53;94.99
39793;BME280;26080;42.264;24.536;2024-02-14T10:23:43;99329.25;;;9.59;93.83
39793;BME280;26080;42.264;24.536;2024-02-14T10:26:10;99318.41;;;9.68;95.11
39793;BME280;26080;42.264;24.536;2024-02-14T10:28:36;99303.44;;;9.72;96.03
39793;BME280;26080;42.264;24.536;2024-02-14T10:31:02;99315.19;;;9.82;94.67
39793;BME280;26080;42.264;24.536;2024-02-14T10:33:30;99280.00;;;9.50;95.51
39793;BME280;26080;42.264;24.536;2024-02-14T10:36:02;99333.44;;;9.84;94.56
39793;BME280;26080;42.264;24.536;2024-02-14T10:38:32;99306.25;;;9.88;95.78
39793;BME280;26080;42.264;24.536;2024-02-14T10:41:01;99313.66;;;9.97;95.36
39793;BME280;26080;42.264;24.536;2024-02-14T10:43:30;99325.13;;;9.94;95.66
39793;BME280;26080;42.264;24.536;2024-02-14T10:45:59;99322.81;;;10.07;95.38
39793;BME280;26080;42.264;24.536;2024-02-14T10:48:28;99296.34;;;10.13;94.60
39793;BME280;26080;42.264;24.536;2024-02-14T10:50:54;99323.69;;;10.26;93.17
39793;BME280;26080;42.264;24.536;2024-02-14T10:53:24;99326.47;;;10.23;92.41
39793;BME280;26080;42.264;24.536;2024-02-14T10:55:51;99283.84;;;10.20;91.58
39793;BME280;26080;42.264;24.536;2024-02-14T10:58:17;99329.16;;;10.41;90.13
39793;BME280;26080;42.264;24.536;2024-02-14T11:00:43;99323.34;;;10.53;92.67
39793;BME280;26080;42.264;24.536;2024-02-14T11:03:09;99322.72;;;10.48;89.58
39793;BME280;26080;42.264;24.536;2024-02-14T11:05:46;99325.34;;;10.48;88.62
39793;BME280;26080;42.264;24.536;2024-02-14T11:08:23;99309.72;;;10.46;88.33
39793;BME280;26080;42.264;24.536;2024-02-14T11:10:54;99317.69;;;10.62;88.74
39793;BME280;26080;42.264;24.536;2024-02-14T11:13:21;99290.06;;;10.55;87.69
39793;BME280;26080;42.264;24.536;2024-02-14T11:15:51;99315.56;;;10.70;88.92
39793;BME280;26080;42.264;24.536;2024-02-14T11:18:29;99298.81;;;10.91;88.87
39793;BME280;26080;42.264;24.536;2024-02-14T11:21:04;99290.34;;;10.86;87.12
39793;BME280;26080;42.264;24.536;2024-02-14T11:23:30;99306.59;;;10.93;83.43
39793;BME280;26080;42.264;24.536;2024-02-14T11:26:00;99312.94;;;11.06;84.26
39793;BME280;26080;42.264;24.536;2024-02-14T11:28:28;99270.16;;;11.06;83.98
39793;BME280;26080;42.264;24.536;2024-02-14T11:31:00;99311.22;;;11.05;83.81
39793;BME280;26080;42.264;24.536;2024-02-14T11:33:26;99308.53;;;11.07;84.29
39793;BME280;26080;42.264;24.536;2024-02-14T11:35:53;99302.06;;;11.14;83.53
39793;BME280;26080;42.264;24.536;2024-02-14T11:38:21;99304.19;;;11.24;84.79
39793;BME280;26080;42.264;24.536;2024-02-14T11:40:47;99282.88;;;11.13;83.43
39793;BME280;26080;42.264;24.536;2024-02-14T11:43:13;99312.56;;;11.14;80.26
39793;BME280;26080;42.264;24.536;2024-02-14T11:45:41;99305.06;;;11.23;81.58
39793;BME280;26080;42.264;24.536;2024-02-14T11:48:11;99307.47;;;11.28;80.98
39793;BME280;26080;42.264;24.536;2024-02-14T11:50:39;99298.69;;;11.29;82.41
39793;BME280;26080;42.264;24.536;2024-02-14T11:53:05;99276.03;;;11.28;80.99
39793;BME280;26080;42.264;24.536;2024-02-14T11:55:34;99302.06;;;11.48;81.36
39793;BME280;26080;42.264;24.536;2024-02-14T11:58:01;99306.59;;;11.62;81.26
39793;BME280;26080;42.264;24.536;2024-02-14T12:00:27;99309.16;;;11.64;81.72
39793;BME280;26080;42.264;24.536;2024-02-14T12:02:53;99303.59;;;11.70;81.39
39793;BME280;26080;42.264;24.536;2024-02-14T12:05:19;99304.06;;;11.61;78.47
39793;BME280;26080;42.264;24.536;2024-02-14T12:07:45;99278.56;;;11.30;77.26
39793;BME280;26080;42.264;24.536;2024-02-14T12:10:11;99298.44;;;11.51;79.83
39793;BME280;26080;42.264;24.536;2024-02-14T12:12:38;99301.00;;;11.52;80.97
39793;BME280;26080;42.264;24.536;2024-02-14T12:15:03;99301.00;;;11.52;78.71
39793;BME280;26080;42.264;24.536;2024-02-14T12:17:31;99304.06;;;11.61;79.14
39793;BME280;26080;42.264;24.536;2024-02-14T12:20:08;99297.03;;;11.61;78.05
39793;BME280;26080;42.264;24.536;2024-02-14T12:22:34;99302.22;;;11.63;79.49
39793;BME280;26080;42.264;24.536;2024-02-14T12:25:00;99295.28;;;11.44;78.91
39793;BME280;26080;42.264;24.536;2024-02-14T12:27:26;99302.31;;;11.44;78.72
39793;BME280;26080;42.264;24.536;2024-02-14T12:29:51;99301.75;;;11.37;80.14
39793;BME280;26080;42.264;24.536;2024-02-14T12:32:18;99308.00;;;11.35;79.41
39793;BME280;26080;42.264;24.536;2024-02-14T12:34:44;99289.91;;;11.30;79.24
39793;BME280;26080;42.264;24.536;2024-02-14T12:37:10;99294.38;;;11.28;80.00
39793;BME280;26080;42.264;24.536;2024-02-14T12:39:37;99302.75;;;11.35;80.72
39793;BME280;26080;42.264;24.536;2024-02-14T12:42:03;99270.75;;;10.93;79.17
39793;BME280;26080;42.264;24.536;2024-02-14T12:44:30;99308.75;;;10.85;80.04
39793;BME280;26080;42.264;24.536;2024-02-14T12:46:55;99313.06;;;10.67;81.11